Time;durP1;ratioP1;P1;durP2;ratioP2;P2;SDS_P1;SDS_P2;PMS_P1;PMS_P2;Temp;Humidity;BMP_temperature;BMP_pressure;BME280_temperature;BME280_humidity;BME280_pressure;Samples;Min_cycle;Max_cycle;Signal;HPM_P1;HPM_P2
2021/06/11 00:00:14;;;;;;;15.43;12.30;;;17.90;97.90;;;17.84;93.49;98437.53;5063751;28;20626;-63
2021/06/11 00:02:43;;;;;;;13.70;12.30;;;17.90;98.00;;;17.83;93.61;98447.28;5043508;28;20990;-62
2021/06/11 00:05:13;;;;;;;14.40;11.93;;;17.90;98.10;;;17.81;93.30;98443.91;5047202;28;20727;-63
2021/06/11 00:07:41;;;;;;;13.60;12.30;;;17.90;98.00;;;17.80;92.79;98442.28;5046048;28;20669;-63
2021/06/11 00:10:13;;;;;;;13.10;11.70;;;17.80;97.90;;;17.79;92.82;98445.06;5046080;28;20686;-62
2021/06/11 00:12:42;;;;;;;15.13;11.57;;;17.80;97.90;;;17.75;93.26;98444.47;5042770;28;20648;-64
2021/06/11 00:15:12;;;;;;;13.13;11.80;;;17.80;98.00;;;17.73;93.24;98440.34;5046152;28;20737;-63
2021/06/11 00:17:40;;;;;;;13.43;12.10;;;17.80;98.30;;;17.70;93.27;98440.63;5044369;28;20636;-63
2021/06/11 00:20:10;;;;;;;14.10;12.63;;;17.80;98.00;;;17.67;93.68;98440.91;5044356;28;20682;-63
2021/06/11 00:22:39;;;;;;;13.63;11.17;;;17.70;98.10;;;17.69;93.63;98438.94;5046601;28;20676;-63
2021/06/11 00:25:10;;;;;;;14.00;12.60;;;17.70;98.30;;;17.67;94.32;98441.72;5047123;28;21046;-63
2021/06/11 00:27:39;;;;;;;12.90;11.60;;;17.70;98.50;;;17.67;93.91;98443.53;5050238;28;21306;-63
2021/06/11 00:30:09;;;;;;;17.83;12.93;;;17.70;98.50;;;17.65;93.84;98448.09;5046552;28;20684;-62
2021/06/11 00:32:39;;;;;;;15.17;12.23;;;17.70;98.50;;;17.59;93.57;98443.38;5047447;28;21029;-62
2021/06/11 00:35:09;;;;;;;12.97;11.50;;;17.60;98.30;;;17.56;93.60;98444.50;5045739;28;21194;-63
2021/06/11 00:37:39;;;;;;;15.07;12.60;;;17.60;98.20;;;17.49;93.61;98440.75;5047276;28;20645;-62
2021/06/11 00:40:10;;;;;;;13.60;12.20;;;17.60;98.10;;;17.48;93.72;98441.75;5045809;28;20658;-62
2021/06/11 00:42:39;;;;;;;12.60;11.30;;;17.50;98.20;;;17.46;93.08;98439.38;5046215;28;20657;-63
2021/06/11 00:45:13;;;;;;;12.63;11.43;;;17.50;98.00;;;17.40;93.84;98435.47;5044130;28;20672;-63
2021/06/11 00:47:41;;;;;;;11.93;10.53;;;17.50;98.10;;;17.32;92.15;98442.41;5047441;28;20706;-62
2021/06/11 00:50:12;;;;;;;14.23;11.73;;;17.40;97.60;;;17.29;92.55;98442.66;5044992;28;20772;-62
2021/06/11 00:52:42;;;;;;;15.13;11.97;;;17.40;97.50;;;17.27;93.46;98439.34;5042780;28;20731;-62
2021/06/11 00:55:11;;;;;;;13.20;11.13;;;17.30;97.80;;;17.24;92.78;98437.81;5044202;28;20675;-63
2021/06/11 00:57:39;;;;;;;13.83;12.40;;;17.30;98.00;;;17.26;93.86;98437.66;5043494;28;21437;-62
2021/06/11 01:00:09;;;;;;;14.47;12.27;;;17.30;98.30;;;17.26;93.53;98432.41;5046153;28;20747;-62
2021/06/11 01:02:37;;;;;;;14.77;12.60;;;17.30;98.40;;;17.22;94.47;98442.38;5044233;28;21210;-63
2021/06/11 01:05:07;;;;;;;13.93;12.00;;;17.30;98.30;;;17.24;93.17;98442.25;5039614;28;20635;-64
2021/06/11 01:07:36;;;;;;;13.77;12.07;;;17.30;98.30;;;17.18;93.99;98446.22;5041515;28;20660;-62
2021/06/11 01:10:08;;;;;;;13.93;12.00;;;17.20;98.30;;;17.18;94.50;98437.50;5046025;28;21050;-63
2021/06/11 01:12:38;;;;;;;12.87;11.57;;;17.20;98.30;;;17.13;93.37;98430.00;5046733;28;20664;-62
2021/06/11 01:15:11;;;;;;;13.30;11.83;;;17.20;98.30;;;17.10;93.65;98437.34;5044154;28;20644;-63
2021/06/11 01:17:41;;;;;;;13.13;11.67;;;17.10;98.00;;;17.07;92.47;98435.00;5058968;28;20637;-62
2021/06/11 01:20:12;;;;;;;15.70;11.10;;;17.20;98.00;;;17.05;92.67;98423.75;5042802;28;20655;-63
2021/06/11 01:23:35;;;;;;;12.73;11.23;;;17.10;98.00;;;17.03;93.91;98426.53;5044326;28;20636;-63
2021/06/11 01:26:23;;;;;;;12.80;11.40;;;17.10;98.20;;;17.03;93.74;98426.53;5033139;28;20621;-62
2021/06/11 01:28:54;;;;;;;15.50;13.13;;;17.10;98.30;;;17.04;93.77;98424.72;5042755;28;20640;-62
2021/06/11 01:31:22;;;;;;;14.60;13.07;;;17.10;98.50;;;17.03;93.94;98421.25;5045165;28;20691;-63
2021/06/11 01:33:57;;;;;;;16.60;13.20;;;17.10;98.50;;;17.04;94.66;98430.00;5044106;28;21216;-62
2021/06/11 01:36:30;;;;;;;18.27;12.33;;;17.10;98.60;;;17.03;93.80;98428.31;5044184;28;20668;-63
2021/06/11 01:39:04;;;;;;;14.90;13.07;;;17.10;98.60;;;17.04;94.92;98427.34;5042923;28;20671;-63
2021/06/11 01:41:35;;;;;;;16.40;12.90;;;17.10;98.70;;;17.00;94.47;98429.44;5045936;28;20628;-63
2021/06/11 01:44:05;;;;;;;14.73;13.17;;;17.10;98.60;;;16.97;93.30;98428.84;5045728;28;20650;-62
2021/06/11 01:46:34;;;;;;;14.47;12.97;;;17.00;98.50;;;16.95;93.79;98430.81;5043329;28;20641;-62
2021/06/11 01:49:04;;;;;;;15.40;12.73;;;17.00;98.40;;;16.93;93.35;98438.00;5044919;28;20621;-63
2021/06/11 01:51:36;;;;;;;15.00;11.37;;;17.00;98.80;;;16.90;94.47;98430.38;5040217;28;20967;-63
2021/06/11 01:54:07;;;;;;;14.43;12.67;;;17.00;98.50;;;16.89;93.62;98428.69;5042631;28;20641;-63
2021/06/11 01:56:38;;;;;;;15.43;11.83;;;16.90;98.50;;;16.90;93.89;98434.78;5037964;28;20639;-63
2021/06/11 01:59:07;;;;;;;15.60;12.77;;;17.00;98.60;;;16.87;94.68;98433.28;5041562;28;20705;-62
2021/06/11 02:01:35;;;;;;;12.80;11.50;;;16.90;98.50;;;16.83;93.30;98437.16;5042102;28;20671;-64
2021/06/11 02:04:06;;;;;;;14.83;11.70;;;16.90;98.30;;;16.74;93.87;98443.22;5044051;28;20625;-63
2021/06/11 02:06:35;;;;;;;13.93;11.17;;;16.80;97.90;;;16.69;92.67;98442.78;5043359;28;20729;-62
2021/06/11 02:09:04;;;;;;;17.77;12.33;;;16.80;97.90;;;16.66;94.08;98440.44;5041579;28;20640;-62
2021/06/11 02:11:33;;;;;;;14.60;12.40;;;16.80;98.00;;;16.65;93.47;98441.38;5045149;28;20638;-62
2021/06/11 02:14:04;;;;;;;13.97;11.93;;;16.70;98.10;;;16.66;94.24;98431.69;5042209;28;20642;-62
2021/06/11 02:16:32;;;;;;;18.27;13.50;;;16.70;98.30;;;16.65;93.25;98432.66;5043054;28;20629;-62
2021/06/11 02:19:02;;;;;;;17.97;13.47;;;16.70;98.30;;;16.68;93.40;98449.03;5041129;28;20708;-63
2021/06/11 02:21:32;;;;;;;16.30;13.07;;;16.70;98.50;;;16.68;93.93;98446.38;5043305;28;21045;-62
2021/06/11 02:24:01;;;;;;;26.57;14.17;;;16.70;98.60;;;16.71;95.16;98446.13;5043702;28;20764;-63
2021/06/11 02:26:31;;;;;;;14.53;12.40;;;16.80;98.80;;;16.69;95.58;98450.69;5044483;28;20638;-64
2021/06/11 02:29:00;;;;;;;19.13;13.10;;;16.80;99.00;;;16.68;93.87;98448.19;5047532;28;20647;-62
2021/06/11 02:31:29;;;;;;;13.57;10.87;;;16.70;98.90;;;16.61;94.66;98455.81;5042240;28;21221;-62
2021/06/11 02:33:58;;;;;;;15.93;12.17;;;16.70;98.50;;;16.57;94.90;98451.75;5041197;28;21213;-63
2021/06/11 02:36:26;;;;;;;20.33;12.20;;;16.70;98.50;;;16.54;94.46;98449.38;5041484;28;20639;-63
2021/06/11 02:38:54;;;;;;;17.00;11.97;;;16.70;98.50;;;16.50;94.74;98446.34;5042535;28;20713;-63
2021/06/11 02:41:26;;;;;;;18.90;12.07;;;16.60;98.40;;;16.45;93.64;98446.72;5042746;28;20650;-63
2021/06/11 02:43:55;;;;;;;15.57;11.73;;;16.60;98.70;;;16.45;95.35;98437.97;5045396;28;20682;-63
2021/06/11 02:46:31;;;;;;;18.50;12.77;;;16.60;98.80;;;16.44;94.14;98439.78;5043486;28;20648;-62
2021/06/11 02:49:08;;;;;;;12.57;10.60;;;16.50;98.90;;;16.42;94.27;98443.50;5041583;28;21213;-64
2021/06/11 02:51:40;;;;;;;16.83;10.97;;;16.50;99.00;;;16.39;94.39;98435.88;5042036;28;20632;-62
2021/06/11 02:54:13;;;;;;;12.53;10.37;;;16.50;98.80;;;16.35;94.25;98440.56;5045062;28;20636;-63
2021/06/11 02:56:46;;;;;;;13.70;12.20;;;16.40;99.10;;;16.29;95.14;98430.56;5045297;28;20656;-62
2021/06/11 02:59:19;;;;;;;13.73;11.37;;;16.40;98.90;;;16.23;94.78;98438.16;5040098;28;20698;-62
2021/06/11 03:01:54;;;;;;;14.07;11.20;;;16.30;99.00;;;16.16;94.06;98436.97;5042717;28;20630;-63
2021/06/11 03:04:26;;;;;;;19.83;11.43;;;16.30;99.00;;;16.11;94.09;98426.81;5041738;28;20698;-63
2021/06/11 03:06:57;;;;;;;11.40;10.07;;;16.20;99.00;;;16.11;95.11;98439.16;5044352;28;20678;-63
2021/06/11 03:09:26;;;;;;;12.17;10.63;;;16.20;99.10;;;16.09;96.10;98436.66;5048993;28;20698;-63
2021/06/11 03:11:57;;;;;;;10.90;9.80;;;16.20;99.10;;;16.07;94.37;98438.59;5046944;28;20640;-62
2021/06/11 03:14:27;;;;;;;11.50;9.70;;;16.20;99.10;;;16.02;93.79;98437.31;5049735;28;20653;-63
2021/06/11 03:17:01;;;;;;;11.17;10.07;;;16.10;99.00;;;16.02;95.06;98437.31;5045597;28;21431;-63
2021/06/11 03:19:34;;;;;;;10.97;8.70;;;16.10;98.90;;;16.00;93.64;98436.63;5042409;28;21239;-62
2021/06/11 03:22:08;;;;;;;10.23;9.23;;;16.10;98.60;;;15.95;93.21;98436.19;5046816;28;20640;-63
2021/06/11 03:24:42;;;;;;;15.07;10.30;;;16.10;98.60;;;15.97;94.43;98442.13;5047440;28;20666;-63
2021/06/11 03:27:15;;;;;;;13.70;11.27;;;16.00;98.80;;;15.99;95.39;98445.47;5045560;28;21210;-62
2021/06/11 03:29:50;;;;;;;15.90;9.67;;;16.00;99.10;;;16.02;94.42;98452.28;5043813;28;20693;-63
2021/06/11 03:32:26;;;;;;;17.20;10.20;;;16.10;99.40;;;16.03;95.85;98447.69;5046786;28;20642;-62
2021/06/11 03:35:00;;;;;;;15.33;9.50;;;16.10;99.40;;;16.02;96.65;98451.28;5045604;28;20643;-63
2021/06/11 03:37:33;;;;;;;16.07;10.80;;;16.10;99.60;;;16.01;97.12;98446.16;5045637;28;20638;-62
2021/06/11 03:40:04;;;;;;;14.57;9.77;;;16.00;99.80;;;16.00;95.73;98447.13;5049895;28;20660;-62
2021/06/11 03:42:33;;;;;;;11.73;9.30;;;16.00;99.90;;;15.99;97.16;98448.09;5049410;28;20639;-62
2021/06/11 03:45:01;;;;;;;12.43;9.50;;;16.00;99.80;;;16.00;95.00;98447.13;5045419;28;20674;-62
2021/06/11 03:47:34;;;;;;;13.20;8.77;;;16.10;99.80;;;16.01;97.17;98451.41;5048208;28;20686;-62
2021/06/11 03:50:05;;;;;;;11.93;9.50;;;16.00;99.80;;;16.00;94.84;98447.13;5041549;28;21029;-63
2021/06/11 03:52:39;;;;;;;11.30;8.50;;;16.00;99.60;;;16.02;96.04;98451.28;5048263;28;20627;-62
2021/06/11 03:55:16;;;;;;;9.43;8.40;;;16.10;99.60;;;16.04;96.16;98445.91;5049012;28;20624;-62
2021/06/11 03:57:51;;;;;;;10.40;9.30;;;16.10;99.50;;;16.07;95.69;98448.28;5046258;28;20643;-63
2021/06/11 04:00:22;;;;;;;12.23;9.20;;;16.10;99.90;;;16.09;95.56;98449.00;5047490;28;20652;-62
2021/06/11 04:02:52;;;;;;;12.23;9.63;;;16.10;99.70;;;16.12;96.71;98456.63;5043013;28;20636;-63
2021/06/11 04:05:20;;;;;;;19.43;10.43;;;16.10;99.90;;;16.12;95.02;98454.00;5050535;28;20644;-62
2021/06/11 04:07:53;;;;;;;18.83;9.97;;;16.20;99.90;;;16.13;95.09;98455.66;5046146;28;20696;-62
2021/06/11 04:10:29;;;;;;;13.00;9.20;;;16.20;99.90;;;16.13;95.05;98455.66;5046129;28;20628;-62
2021/06/11 04:13:08;;;;;;;11.50;9.90;;;16.20;99.80;;;16.15;96.39;98456.38;5041915;28;20641;-62
2021/06/11 04:15:38;;;;;;;11.90;9.30;;;16.20;99.80;;;16.18;96.48;98454.31;5049069;28;21006;-63
2021/06/11 04:18:11;;;;;;;20.97;9.67;;;16.20;99.90;;;16.20;95.39;98454.19;5042838;28;21372;-62
2021/06/11 04:20:43;;;;;;;23.93;9.53;;;16.20;99.80;;;16.24;95.20;98458.25;5044386;28;20670;-62
2021/06/11 04:23:12;;;;;;;20.83;9.50;;;16.30;99.90;;;16.28;95.56;98454.38;5046243;28;20705;-63
2021/06/11 04:25:42;;;;;;;19.03;8.87;;;16.30;99.90;;;16.34;94.64;98459.13;5046172;28;21469;-62
2021/06/11 04:28:11;;;;;;;18.17;10.47;;;16.30;99.90;;;16.41;94.83;98455.03;5042955;28;20644;-62
2021/06/11 04:30:39;;;;;;;19.70;10.03;;;16.40;99.90;;;16.49;95.78;98452.56;5045036;28;20681;-63
2021/06/11 04:33:22;;;;;;;20.90;9.03;;;16.50;99.90;;;16.54;95.62;98451.19;5046896;28;20636;-63
2021/06/11 04:35:50;;;;;;;16.50;9.10;;;16.50;99.90;;;16.62;95.70;98460.09;5045979;28;20679;-63
2021/06/11 04:38:26;;;;;;;14.43;9.47;;;16.60;99.90;;;16.71;93.96;98464.56;5049340;28;20740;-62
2021/06/11 04:40:54;;;;;;;11.60;9.43;;;16.60;99.70;;;16.77;94.96;98463.22;5045053;28;20714;-63
2021/06/11 04:43:23;;;;;;;11.50;9.63;;;16.70;99.90;;;16.89;95.56;98467.41;5044097;28;20677;-62
2021/06/11 04:45:51;;;;;;;11.33;9.70;;;16.80;99.90;;;16.98;95.82;98469.25;5063511;28;21163;-63
2021/06/11 04:48:21;;;;;;;10.97;9.40;;;16.80;99.90;;;17.05;94.18;98464.13;5044656;28;21049;-63
2021/06/11 04:50:51;;;;;;;15.00;10.20;;;16.90;99.90;;;17.13;94.80;98469.53;5043715;28;20640;-62
2021/06/11 04:53:19;;;;;;;12.03;10.50;;;17.00;99.90;;;17.25;95.80;98470.31;5043917;28;20685;-62
2021/06/11 04:55:47;;;;;;;13.03;10.67;;;17.10;99.90;;;17.37;94.99;98479.75;5042798;28;20686;-62
2021/06/11 04:58:18;;;;;;;10.40;9.03;;;17.20;99.90;;;17.47;94.26;98470.88;5044845;28;20652;-63
2021/06/11 05:00:46;;;;;;;10.57;9.40;;;17.30;99.80;;;17.61;94.59;98473.13;5043332;28;20663;-63
2021/06/11 05:03:15;;;;;;;10.20;9.20;;;17.50;99.90;;;17.72;95.30;98470.31;5047351;28;20651;-63
2021/06/11 05:05:44;;;;;;;12.30;9.30;;;17.60;99.90;;;17.81;93.67;98472.13;5045075;28;20694;-62
2021/06/11 05:08:15;;;;;;;10.50;8.87;;;17.60;99.50;;;17.86;93.39;98472.53;5046108;28;20694;-63
2021/06/11 05:10:43;;;;;;;10.60;9.30;;;17.70;99.20;;;17.99;93.77;98482.66;5047206;28;20634;-63
2021/06/11 05:13:11;;;;;;;11.00;8.87;;;17.80;99.60;;;18.10;92.89;98482.53;5044445;28;20640;-63
2021/06/11 05:15:42;;;;;;;11.10;9.30;;;17.90;99.10;;;18.13;92.08;98484.06;5044406;28;20737;-63
2021/06/11 05:18:10;;;;;;;15.17;10.33;;;17.90;98.70;;;18.26;92.71;98487.25;5058329;28;21185;-62
2021/06/11 05:20:39;;;;;;;10.50;9.50;;;18.10;99.10;;;18.39;92.72;98487.75;5049081;28;20653;-62
2021/06/11 05:23:09;;;;;;;9.97;9.00;;;18.20;99.10;;;18.52;92.41;98489.97;5047163;28;20992;-63
2021/06/11 05:25:38;;;;;;;11.03;8.60;;;18.30;99.10;;;18.64;92.99;98494.09;5047127;28;20645;-63
2021/06/11 05:28:06;;;;;;;10.30;9.30;;;18.40;98.90;;;18.75;91.69;98495.72;5044794;28;20640;-62
2021/06/11 05:30:34;;;;;;;10.83;9.70;;;18.60;98.90;;;18.91;92.96;98496.75;5042922;28;20627;-63
2021/06/11 05:33:03;;;;;;;11.17;10.17;;;18.70;99.00;;;19.08;92.65;98498.69;5044364;28;20638;-63
2021/06/11 05:35:32;;;;;;;11.40;10.30;;;18.90;98.90;;;19.25;91.15;98496.06;5044065;28;20642;-63
2021/06/11 05:38:04;;;;;;;11.00;9.90;;;19.00;98.90;;;19.41;90.93;98490.97;5046005;28;20690;-62
2021/06/11 05:40:36;;;;;;;10.50;9.50;;;19.20;98.20;;;19.64;90.41;98498.28;5049641;28;20783;-64
2021/06/11 05:43:04;;;;;;;9.70;8.80;;;19.40;97.90;;;19.91;89.42;98493.78;5051061;28;20643;-63
2021/06/11 05:45:32;;;;;;;12.63;11.43;;;19.60;97.60;;;20.12;89.25;98496.13;5051531;28;20697;-63
2021/06/11 05:48:02;;;;;;;11.27;10.17;;;19.80;97.30;;;20.44;87.61;98508.59;5050712;28;20635;-63
2021/06/11 05:50:31;;;;;;;10.70;9.60;;;20.20;96.60;;;20.80;87.52;98501.41;5049111;28;20703;-63
2021/06/11 05:53:00;;;;;;;11.10;9.60;;;20.40;96.40;;;21.18;86.07;98507.06;5050096;28;20633;-63
2021/06/11 05:55:28;;;;;;;10.80;9.80;;;20.90;95.60;;;21.52;84.15;98504.22;5043280;28;20675;-63
2021/06/11 05:57:58;;;;;;;10.13;9.20;;;21.20;94.70;;;21.83;83.41;98502.59;5050636;28;20697;-63
2021/06/11 06:00:27;;;;;;;10.10;9.20;;;21.60;94.10;;;22.11;82.60;98504.78;5048754;28;20644;-63
2021/06/11 06:02:55;;;;;;;10.10;9.10;;;21.90;93.40;;;22.38;81.70;98515.94;5050551;28;20633;-63
2021/06/11 06:05:24;;;;;;;10.67;9.60;;;22.10;93.10;;;22.58;81.30;98503.97;5050536;28;21033;-63
2021/06/11 06:07:52;;;;;;;9.93;9.03;;;22.40;92.60;;;22.83;79.90;98506.41;5051466;28;21078;-63
2021/06/11 06:10:21;;;;;;;11.53;10.33;;;22.60;92.00;;;23.07;79.82;98510.88;5049210;28;20635;-63
2021/06/11 06:12:49;;;;;;;10.90;9.90;;;22.90;91.60;;;23.27;78.19;98503.13;5050916;28;20635;-63
2021/06/11 06:15:18;;;;;;;9.93;9.03;;;23.10;90.80;;;23.51;77.99;98505.66;5047533;28;20685;-65
2021/06/11 06:17:46;;;;;;;10.97;9.97;;;23.30;90.40;;;23.72;78.62;98504.09;5051359;28;20639;-63
2021/06/11 06:20:16;;;;;;;10.93;9.93;;;23.60;90.70;;;23.91;76.28;98510.78;5047476;28;20666;-63
2021/06/11 06:22:44;;;;;;;11.07;9.60;;;23.70;89.40;;;24.13;75.62;98499.28;5051603;28;20645;-63
2021/06/11 06:25:14;;;;;;;11.17;10.10;;;24.00;88.30;;;24.38;76.06;98509.59;5050704;28;20682;-63
2021/06/11 06:27:43;;;;;;;10.70;9.57;;;24.20;87.60;;;24.59;75.09;98505.22;5046331;28;21250;-64
2021/06/11 06:30:15;;;;;;;9.97;9.07;;;24.30;86.20;;;24.83;73.97;98515.66;5046917;28;20636;-63
2021/06/11 06:32:45;;;;;;;11.40;10.30;;;24.60;85.90;;;25.04;74.78;98515.81;5046372;28;20674;-64
2021/06/11 06:35:17;;;;;;;10.43;9.47;;;24.80;86.60;;;25.20;73.13;98514.59;5046223;28;20686;-64
2021/06/11 06:37:45;;;;;;;10.50;9.60;;;25.00;84.70;;;25.33;72.82;98509.44;5052146;28;21501;-64
2021/06/11 06:40:14;;;;;;;10.80;9.80;;;25.10;83.40;;;25.56;72.26;98520.81;5052878;28;20634;-64
2021/06/11 06:42:42;;;;;;;11.30;10.00;;;25.30;82.80;;;25.59;71.45;98518.59;5052870;28;20985;-64
2021/06/11 06:45:13;;;;;;;11.07;10.07;;;25.30;81.30;;;25.51;71.06;98514.38;5052392;28;20954;-64
2021/06/11 06:47:45;;;;;;;10.43;9.43;;;25.20;80.50;;;25.82;71.66;98518.50;5050617;28;21119;-64
2021/06/11 06:50:16;;;;;;;10.97;9.40;;;25.50;82.70;;;26.03;72.06;98518.50;5051102;28;20646;-64
2021/06/11 06:52:45;;;;;;;11.60;10.50;;;25.60;82.90;;;26.13;71.56;98517.16;5051546;28;20637;-63
2021/06/11 06:55:14;;;;;;;11.20;10.20;;;25.80;81.70;;;26.32;71.75;98517.38;5053175;28;20639;-64
2021/06/11 06:57:42;;;;;;;10.27;9.37;;;26.00;81.50;;;26.54;71.09;98523.53;5054995;28;20955;-64
2021/06/11 07:00:12;;;;;;;11.70;10.70;;;26.20;81.40;;;26.71;71.65;98528.41;5054420;28;20620;-63
2021/06/11 07:02:40;;;;;;;10.87;9.97;;;26.30;81.70;;;26.80;68.29;98520.03;5051490;28;20631;-64
2021/06/11 07:05:11;;;;;;;11.47;10.27;;;26.50;76.90;;;26.92;69.92;98523.88;5053201;28;20664;-64
2021/06/11 07:07:39;;;;;;;10.60;9.70;;;26.50;79.60;;;27.04;68.56;98520.44;5052684;28;20654;-64
2021/06/11 07:10:09;;;;;;;11.50;10.50;;;26.60;76.70;;;27.15;68.54;98521.75;5051399;28;20636;-64
2021/06/11 07:12:37;;;;;;;11.33;10.23;;;26.80;77.10;;;27.15;68.33;98525.25;5051442;28;20640;-64
2021/06/11 07:15:09;;;;;;;11.30;10.30;;;26.80;75.90;;;27.22;68.10;98517.25;5051534;28;20670;-64
2021/06/11 07:17:37;;;;;;;11.40;10.40;;;26.80;74.30;;;27.38;66.83;98514.22;5052798;28;21082;-64
2021/06/11 07:20:08;;;;;;;11.40;10.40;;;26.90;74.80;;;27.47;67.01;98513.88;5050828;28;20655;-64
2021/06/11 07:22:38;;;;;;;11.13;10.23;;;27.10;74.00;;;27.54;68.70;98512.06;5053065;28;21053;-64
2021/06/11 07:25:07;;;;;;;11.67;10.67;;;27.20;75.80;;;27.70;68.40;98514.41;5051079;28;21182;-64
2021/06/11 07:27:36;;;;;;;11.43;10.43;;;27.20;75.90;;;27.88;69.07;98517.38;5051168;28;20629;-64
2021/06/11 07:30:08;;;;;;;11.83;10.83;;;27.40;77.90;;;28.02;68.07;98515.34;5050968;28;20633;-64
2021/06/11 07:32:43;;;;;;;12.90;11.70;;;27.60;75.60;;;28.14;68.75;98508.34;5051178;28;20636;-64
2021/06/11 07:35:12;;;;;;;11.33;10.43;;;27.70;75.30;;;28.34;66.80;98511.91;5048874;28;20693;-64
2021/06/11 07:37:43;;;;;;;12.13;11.03;;;27.90;74.20;;;28.35;65.25;98518.91;5050409;28;20644;-64
2021/06/11 07:40:14;;;;;;;10.60;9.70;;;27.90;71.10;;;28.45;65.53;98519.34;5047941;28;20637;-64
2021/06/11 07:42:43;;;;;;;11.30;10.30;;;28.00;71.30;;;28.58;66.45;98520.19;5052828;28;20660;-64
2021/06/11 07:45:12;;;;;;;11.90;10.87;;;28.20;73.40;;;28.62;66.23;98509.84;5047303;28;20684;-64
2021/06/11 07:47:41;;;;;;;12.33;11.33;;;28.20;72.80;;;28.66;66.35;98516.47;5052971;28;20638;-64
2021/06/11 07:50:10;;;;;;;11.20;10.20;;;28.30;72.10;;;28.73;66.51;98511.94;5052355;28;21173;-64
2021/06/11 07:52:39;;;;;;;12.80;11.70;;;28.30;72.50;;;28.85;65.54;98521.00;5047826;28;20621;-64
2021/06/11 07:55:09;;;;;;;12.00;11.00;;;28.40;71.30;;;28.91;65.94;98512.94;5053509;28;20686;-64
2021/06/11 07:57:37;;;;;;;13.00;11.70;;;28.50;70.70;;;28.93;66.42;98513.56;5050235;28;20628;-64
2021/06/11 08:00:07;;;;;;;14.10;12.70;;;28.50;71.20;;;28.91;63.28;98514.81;5050931;28;20639;-64
2021/06/11 08:02:54;;;;;;;12.03;10.97;;;28.50;68.20;;;28.86;65.12;98512.75;5050118;28;20988;-64
2021/06/11 08:05:24;;;;;;;12.60;11.40;;;28.60;70.00;;;29.00;66.65;98514.38;5048320;28;20640;-64
2021/06/11 08:07:53;;;;;;;12.23;11.23;;;28.60;70.60;;;29.11;65.86;98511.88;5050231;28;20726;-64
2021/06/11 08:10:23;;;;;;;12.13;11.03;;;28.80;70.40;;;29.22;66.06;98508.53;5047731;28;20678;-64
2021/06/11 08:12:52;;;;;;;13.03;11.90;;;28.90;71.40;;;29.37;64.05;98511.84;5052687;28;20630;-64
2021/06/11 08:15:21;;;;;;;13.63;12.53;;;29.00;69.00;;;29.42;63.92;98509.31;5047201;28;20987;-64
2021/06/11 08:17:50;;;;;;;12.10;11.10;;;29.00;69.20;;;29.46;64.63;98496.28;5045060;28;20655;-65
2021/06/11 08:20:19;;;;;;;12.67;11.47;;;29.10;69.10;;;29.56;64.73;98498.31;5046359;28;20660;-64
2021/06/11 08:22:47;;;;;;;12.80;11.60;;;29.10;69.30;;;29.56;63.62;98502.88;5049963;28;20667;-64
2021/06/11 08:25:15;;;;;;;12.63;11.43;;;29.20;67.50;;;29.53;62.71;98497.94;5049906;28;20641;-64
2021/06/11 08:27:45;;;;;;;11.90;10.90;;;29.10;66.20;;;29.60;63.20;98506.78;5050861;28;20678;-64
2021/06/11 08:30:15;;;;;;;12.63;11.53;;;29.20;67.60;;;29.61;63.76;98498.50;5046290;28;20659;-64
2021/06/11 08:32:50;;;;;;;12.10;11.00;;;29.20;68.40;;;29.65;64.05;98499.72;5044247;28;20637;-64
2021/06/11 08:35:19;;;;;;;12.50;11.43;;;29.30;67.70;;;29.70;65.00;98499.91;5049548;28;21089;-64
2021/06/11 08:37:48;;;;;;;11.67;10.67;;;29.30;69.00;;;29.81;65.20;98506.50;5048195;28;20680;-64
2021/06/11 08:40:18;;;;;;;10.77;9.87;;;29.40;69.80;;;29.94;62.25;98498.38;5047570;28;20643;-64
2021/06/11 08:42:48;;;;;;;11.80;10.80;;;29.50;66.80;;;29.97;64.44;98498.75;5051495;28;20647;-64
2021/06/11 08:45:18;;;;;;;11.70;10.70;;;29.60;67.60;;;30.03;63.78;98505.97;5047937;28;21183;-64
2021/06/11 08:47:54;;;;;;;10.87;9.97;;;29.70;67.60;;;29.95;63.13;98496.28;5049154;28;21039;-64
2021/06/11 08:50:26;;;;;;;11.17;10.30;;;29.70;65.40;;;29.94;61.12;98494.63;5048203;28;20676;-65
2021/06/11 08:52:56;;;;;;;10.97;10.07;;;29.60;63.40;;;29.93;60.06;98502.91;5047170;28;20996;-64
2021/06/11 08:55:26;;;;;;;10.47;9.67;;;29.70;61.90;;;29.95;63.66;98490.91;5048870;28;20646;-64
2021/06/11 08:57:56;;;;;;;10.53;9.73;;;29.70;65.50;;;30.03;61.03;98489.81;5052428;28;20628;-64
2021/06/11 09:00:25;;;;;;;9.90;9.10;;;29.70;62.70;;;30.02;59.85;98485.47;5053069;28;20763;-64
2021/06/11 09:03:18;;;;;;;9.70;8.80;;;29.70;61.60;;;30.08;60.09;98490.78;5048402;28;20732;-64
2021/06/11 09:06:04;;;;;;;9.60;8.90;;;29.70;61.80;;;30.11;61.03;98492.25;5061585;28;20649;-64
2021/06/11 09:08:37;;;;;;;10.30;9.50;;;29.80;62.00;;;30.04;61.59;98489.59;5049466;28;20648;-64
2021/06/11 09:11:14;;;;;;;10.23;9.43;;;29.70;62.10;;;29.98;59.86;98487.78;5044572;28;20648;-64
2021/06/11 09:13:47;;;;;;;10.97;10.07;;;29.70;60.60;;;30.02;62.74;98490.84;5049431;28;20648;-64
2021/06/11 09:16:17;;;;;;;10.13;9.33;;;29.70;63.90;;;30.07;62.11;98491.88;5047278;28;20705;-64
2021/06/11 09:18:49;;;;;;;10.03;9.13;;;29.80;64.20;;;30.06;61.95;98490.19;5049674;28;20643;-64
2021/06/11 09:21:43;;;;;;;11.30;10.40;;;29.70;64.90;;;30.01;59.70;98484.66;5048747;28;20660;-64
2021/06/11 09:24:25;;;;;;;10.97;10.10;;;29.70;60.50;;;30.02;60.83;98486.28;5047580;28;20638;-64
2021/06/11 09:27:12;;;;;;;10.77;9.93;;;29.70;61.80;;;30.01;58.63;98487.34;5047019;28;20640;-64
2021/06/11 09:29:45;;;;;;;11.00;10.10;;;29.60;59.60;;;29.95;60.78;98480.13;5046692;28;21016;-64
2021/06/11 09:32:19;;;;;;;35.17;16.90;;;29.60;61.00;;;30.05;64.36;98490.41;5048487;28;20642;-64
2021/06/11 09:34:50;;;;;;;10.57;9.60;;;29.60;66.30;;;30.08;60.68;98484.59;5061914;28;20636;-64
2021/06/11 09:37:20;;;;;;;10.50;9.50;;;29.70;61.80;;;30.09;62.47;98475.50;5050275;28;20651;-64
2021/06/11 09:39:51;;;;;;;11.07;10.17;;;29.70;64.00;;;30.13;61.26;98482.91;5050808;28;20637;-64
2021/06/11 09:42:22;;;;;;;10.97;9.97;;;29.70;62.00;;;30.14;58.69;98481.84;5047614;28;20662;-64
2021/06/11 09:44:54;;;;;;;10.20;9.30;;;29.70;59.10;;;30.07;58.37;98486.47;5048916;28;20653;-64
2021/06/11 09:47:38;;;;;;;11.27;10.37;;;29.70;59.00;;;30.09;57.81;98484.38;5050965;28;20631;-64
2021/06/11 09:50:15;;;;;;;11.13;10.03;;;29.70;58.60;;;30.11;62.86;98489.56;5047289;28;20732;-64
2021/06/11 09:53:01;;;;;;;10.70;9.90;;;29.70;62.80;;;30.11;60.82;98481.47;5047379;28;20668;-64
2021/06/11 09:55:33;;;;;;;10.43;9.63;;;29.80;60.40;;;30.04;60.49;98478.00;5049698;28;20643;-62
2021/06/11 09:58:14;;;;;;;11.07;10.17;;;29.70;60.00;;;30.13;63.26;98484.75;5050182;28;21052;-62
2021/06/11 10:00:49;;;;;;;11.20;10.20;;;29.70;64.70;;;30.30;60.44;98477.81;5049607;28;21034;-62
2021/06/11 10:03:20;;;;;;;10.27;9.47;;;29.90;61.00;;;30.21;59.23;98477.25;5046496;28;20734;-62
2021/06/11 10:05:51;;;;;;;10.47;9.63;;;29.80;58.30;;;30.20;59.87;98472.91;5048451;28;20668;-62
2021/06/11 10:08:21;;;;;;;10.07;9.27;;;29.80;59.60;;;30.25;60.46;98481.19;5048576;28;20636;-62
2021/06/11 10:10:52;;;;;;;11.33;10.43;;;29.80;60.60;;;30.31;59.00;98474.91;5049913;28;21439;-62
2021/06/11 10:13:21;;;;;;;11.30;10.40;;;29.90;58.60;;;30.31;59.51;98471.38;5045650;28;20652;-62
2021/06/11 10:15:52;;;;;;;10.90;10.00;;;29.90;58.70;;;30.39;58.08;98466.59;5049545;28;20679;-62
2021/06/11 10:18:21;;;;;;;11.00;10.10;;;30.00;58.20;;;30.32;55.50;98471.16;5050591;28;20639;-62
2021/06/11 10:20:51;;;;;;;9.40;8.70;;;30.00;55.30;;;30.29;54.90;98473.47;5046555;28;20684;-62
2021/06/11 10:23:21;;;;;;;10.23;9.43;;;29.80;53.90;;;30.32;56.85;98470.34;5050525;28;20656;-62